Time;durP1;ratioP1;P1;durP2;ratioP2;P2;SDS_P1;SDS_P2;PMS_P1;PMS_P2;Temp;Humidity;BMP_temperature;BMP_pressure;BME280_temperature;BME280_humidity;BME280_pressure;Samples;Min_cycle;Max_cycle;Signal;HPM_P1;HPM_P2
2021/10/14 00:00:24;;;;;;;;;;;;;;;11.77;87.91;100409.06;5089163;28;19912;-19
2021/10/14 00:02:50;;;;;;;;;;;;;;;11.77;87.71;100411.72;5088829;28;20437;-20
2021/10/14 00:05:16;;;;;;;;;;;;;;;11.72;87.74;100414.25;5089149;28;20012;-20
2021/10/14 00:07:41;;;;;;;;;;;;;;;11.71;87.67;100409.94;5088941;28;19912;-20
2021/10/14 00:10:07;;;;;;;;;;;;;;;11.65;87.89;100407.09;5090832;28;20022;-20
2021/10/14 00:12:32;;;;;;;;;;;;;;;11.98;87.31;100406.03;5092837;28;20307;-20
2021/10/14 00:14:57;;;;;;;;;;;;;;;11.97;86.68;100401.75;5092850;28;19918;-19
2021/10/14 00:17:23;;;;;;;;;;;;;;;11.99;86.60;100412.19;5092726;28;20003;-19
2021/10/14 00:19:49;;;;;;;;;;;;;;;11.78;87.37;100405.38;5092740;28;19911;-19
2021/10/14 00:22:14;;;;;;;;;;;;;;;11.85;87.61;100408.81;5092805;28;20030;-20
2021/10/14 00:24:39;;;;;;;;;;;;;;;12.06;86.57;100403.09;5092657;28;19919;-20
2021/10/14 00:27:04;;;;;;;;;;;;;;;11.85;87.24;100395.44;5092528;28;19969;-19
2021/10/14 00:29:30;;;;;;;;;;;;;;;11.83;87.49;100384.16;5092648;28;20060;-19
2021/10/14 00:31:55;;;;;;;;;;;;;;;11.62;88.75;100386.16;5074336;28;19923;-19
2021/10/14 00:34:20;;;;;;;;;;;;;;;11.85;87.79;100388.25;5092864;28;19981;-19
2021/10/14 00:36:46;;;;;;;;;;;;;;;11.65;87.76;100393.75;5091343;28;20439;-19
2021/10/14 00:39:11;;;;;;;;;;;;;;;11.63;88.18;100398.50;5092485;28;19920;-19
2021/10/14 00:41:36;;;;;;;;;;;;;;;11.46;88.52;100384.03;5092389;28;19942;-19
2021/10/14 00:44:02;;;;;;;;;;;;;;;11.48;88.86;100395.31;5074450;28;19916;-18
2021/10/14 00:46:27;;;;;;;;;;;;;;;11.59;88.72;100397.28;5092411;28;19938;-19
2021/10/14 00:48:52;;;;;;;;;;;;;;;11.78;88.17;100397.34;5092349;28;19920;-19
2021/10/14 00:51:18;;;;;;;;;;;;;;;11.69;88.28;100398.66;5092359;28;19931;-20
2021/10/14 00:53:43;;;;;;;;;;;;;;;11.66;88.68;100395.38;5092680;28;19951;-19
2021/10/14 00:56:08;;;;;;;;;;;;;;;11.77;88.01;100403.72;5092267;28;19920;-18
2021/10/14 00:58:34;;;;;;;;;;;;;;;11.88;87.51;100408.38;5092234;28;20304;-19
2021/10/14 01:01:02;;;;;;;;;;;;;;;11.93;86.89;100405.06;5092182;28;20319;-19
2021/10/14 01:03:28;;;;;;;;;;;;;;;11.93;87.29;100413.06;5092475;28;19916;-18
2021/10/14 01:05:53;;;;;;;;;;;;;;;11.87;87.41;100422.78;5092041;28;20331;-19
2021/10/14 01:08:18;;;;;;;;;;;;;;;11.80;88.04;100422.81;5092099;28;19923;-18
2021/10/14 01:10:44;;;;;;;;;;;;;;;11.83;88.12;100429.59;5092082;28;19976;-18
2021/10/14 01:13:09;;;;;;;;;;;;;;;11.68;88.21;100407.72;5091844;28;20300;-19
2021/10/14 01:15:34;;;;;;;;;;;;;;;11.73;88.33;100397.16;5073951;28;19970;-18
2021/10/14 01:17:59;;;;;;;;;;;;;;;11.79;87.40;100396.31;5091707;28;19919;-18
2021/10/14 01:20:25;;;;;;;;;;;;;;;11.71;88.21;100391.22;5091212;28;19919;-19
2021/10/14 01:22:50;;;;;;;;;;;;;;;11.85;87.37;100392.78;5090130;28;19915;-18
2021/10/14 01:25:15;;;;;;;;;;;;;;;11.64;88.72;100394.78;5091699;28;19959;-19
2021/10/14 01:27:41;;;;;;;;;;;;;;;11.57;89.29;100396.69;5091736;28;19939;-18
2021/10/14 01:30:07;;;;;;;;;;;;;;;11.53;89.43;100395.50;5091821;28;20757;-18
2021/10/14 01:32:32;;;;;;;;;;;;;;;11.62;89.19;100398.69;5091614;28;20384;-18
2021/10/14 01:34:58;;;;;;;;;;;;;;;11.80;88.12;100400.63;5091201;28;19920;-19
2021/10/14 01:37:23;;;;;;;;;;;;;;;11.68;88.47;100397.84;5091355;28;19985;-18
2021/10/14 01:39:48;;;;;;;;;;;;;;;11.76;88.21;100410.91;5091446;28;20384;-18
2021/10/14 01:42:13;;;;;;;;;;;;;;;11.69;88.73;100406.66;5091218;28;19920;-19
2021/10/14 01:44:39;;;;;;;;;;;;;;;11.78;88.55;100418.72;5091543;28;19912;-18
2021/10/14 01:47:04;;;;;;;;;;;;;;;11.72;89.11;100424.94;5091100;28;20411;-19
2021/10/14 01:49:29;;;;;;;;;;;;;;;12.04;87.32;100423.06;5091262;28;19912;-19
2021/10/14 01:51:54;;;;;;;;;;;;;;;12.08;86.38;100423.44;5091212;28;19919;-18
2021/10/14 01:54:20;;;;;;;;;;;;;;;11.99;87.06;100415.72;5091002;28;19912;-19
2021/10/14 01:56:45;;;;;;;;;;;;;;;11.84;88.13;100412.50;5090865;28;19922;-19
2021/10/14 01:59:10;;;;;;;;;;;;;;;11.83;87.59;100405.53;5091057;28;19915;-19
2021/10/14 02:01:36;;;;;;;;;;;;;;;11.82;88.13;100409.25;5091006;28;19920;-19
2021/10/14 02:04:01;;;;;;;;;;;;;;;11.76;88.07;100420.81;5090786;28;19962;-19
2021/10/14 02:06:27;;;;;;;;;;;;;;;11.73;87.62;100426.56;5090785;28;19943;-19
2021/10/14 02:08:52;;;;;;;;;;;;;;;11.63;88.20;100427.06;5090792;28;20443;-18
2021/10/14 02:11:17;;;;;;;;;;;;;;;11.69;88.27;100425.34;5090554;28;19920;-19
2021/10/14 02:13:42;;;;;;;;;;;;;;;11.79;87.94;100425.69;5090697;28;19933;-19
2021/10/14 02:16:08;;;;;;;;;;;;;;;11.90;87.37;100422.34;5090697;28;19919;-19
2021/10/14 02:18:33;;;;;;;;;;;;;;;11.85;87.45;100427.53;5090927;28;19952;-19
2021/10/14 02:20:58;;;;;;;;;;;;;;;11.93;87.06;100416.59;5090640;28;20011;-19
2021/10/14 02:23:24;;;;;;;;;;;;;;;11.85;87.03;100431.00;5090870;28;19912;-19
2021/10/14 02:25:49;;;;;;;;;;;;;;;11.87;87.37;100438.81;5090424;28;19998;-19
2021/10/14 02:28:14;;;;;;;;;;;;;;;11.94;87.19;100428.91;5090712;28;19912;-20
2021/10/14 02:30:40;;;;;;;;;;;;;;;11.86;87.44;100423.81;5090469;28;19965;-19
2021/10/14 02:33:05;;;;;;;;;;;;;;;11.79;87.42;100421.19;5089854;28;19916;-19
2021/10/14 02:35:30;;;;;;;;;;;;;;;11.78;87.75;100418.72;5090247;28;19916;-18
2021/10/14 02:37:55;;;;;;;;;;;;;;;11.73;87.90;100423.88;5090077;28;19912;-18
2021/10/14 02:40:21;;;;;;;;;;;;;;;11.90;87.36;100430.38;5090268;28;19962;-18
2021/10/14 02:42:46;;;;;;;;;;;;;;;11.86;87.00;100429.13;5090027;28;19916;-18
2021/10/14 02:45:11;;;;;;;;;;;;;;;11.85;86.83;100435.53;5089910;28;19923;-18
2021/10/14 02:47:36;;;;;;;;;;;;;;;11.54;87.73;100434.50;5090372;28;19927;-19
2021/10/14 02:50:02;;;;;;;;;;;;;;;11.46;88.62;100434.75;5089978;28;20383;-18
2021/10/14 02:52:27;;;;;;;;;;;;;;;11.70;87.91;100437.69;5088745;28;19923;-19
2021/10/14 02:54:53;;;;;;;;;;;;;;;12.01;85.85;100445.72;5089608;28;19912;-19
2021/10/14 02:57:18;;;;;;;;;;;;;;;11.89;86.23;100447.47;5089858;28;19960;-20
2021/10/14 02:59:43;;;;;;;;;;;;;;;11.62;86.11;100450.28;5090258;28;19916;-18
2021/10/14 03:02:08;;;;;;;;;;;;;;;11.43;87.17;100448.56;5090188;28;19919;-19
2021/10/14 03:04:34;;;;;;;;;;;;;;;11.17;87.98;100455.69;5090049;28;20014;-19
2021/10/14 03:06:59;;;;;;;;;;;;;;;10.96;90.48;100453.31;5089541;28;20010;-19
2021/10/14 03:09:24;;;;;;;;;;;;;;;11.05;89.71;100452.03;5089714;28;19927;-19
2021/10/14 03:11:50;;;;;;;;;;;;;;;11.13;89.35;100449.13;5089535;28;19931;-18
2021/10/14 03:14:15;;;;;;;;;;;;;;;11.22;88.69;100437.19;5089650;28;20673;-18
2021/10/14 03:16:40;;;;;;;;;;;;;;;11.15;88.67;100436.38;5089695;28;19920;-18
2021/10/14 03:19:05;;;;;;;;;;;;;;;11.04;90.06;100434.41;5089246;28;19912;-19
2021/10/14 03:21:31;;;;;;;;;;;;;;;11.02;90.61;100436.47;5089530;28;19918;-19
2021/10/14 03:23:56;;;;;;;;;;;;;;;11.13;89.32;100443.78;5089966;28;19912;-19
2021/10/14 03:26:21;;;;;;;;;;;;;;;11.03;90.14;100438.09;5071350;28;20281;-19
2021/10/14 03:28:47;;;;;;;;;;;;;;;11.12;89.56;100447.50;5090340;28;20011;-19
2021/10/14 03:31:12;;;;;;;;;;;;;;;11.23;89.91;100444.16;5089143;28;19911;-19
2021/10/14 03:33:37;;;;;;;;;;;;;;;11.30;89.17;100456.63;5088163;28;19920;-19
2021/10/14 03:36:04;;;;;;;;;;;;;;;11.31;88.73;100458.28;5087697;28;20303;-19
2021/10/14 03:38:29;;;;;;;;;;;;;;;11.50;88.33;100465.34;5089013;28;19919;-20
2021/10/14 03:40:54;;;;;;;;;;;;;;;11.41;88.27;100462.13;5089029;28;20315;-19
2021/10/14 03:43:20;;;;;;;;;;;;;;;11.33;89.29;100466.91;5073250;28;19947;-18
2021/10/14 03:45:45;;;;;;;;;;;;;;;11.56;87.83;100469.84;5093912;28;19919;-19
2021/10/14 03:48:10;;;;;;;;;;;;;;;11.59;87.63;100477.44;5093629;28;19912;-18
2021/10/14 03:50:36;;;;;;;;;;;;;;;11.57;87.63;100487.50;5093395;28;19961;-19
2021/10/14 03:53:01;;;;;;;;;;;;;;;11.62;87.71;100473.50;5093505;28;19916;-18
2021/10/14 03:55:26;;;;;;;;;;;;;;;11.84;86.86;100482.81;5080220;28;19915;-19
2021/10/14 03:57:52;;;;;;;;;;;;;;;11.95;85.76;100481.34;5114455;28;19915;-19
2021/10/14 04:00:17;;;;;;;;;;;;;;;11.77;86.48;100470.50;5113944;28;19919;-20
2021/10/14 04:02:42;;;;;;;;;;;;;;;11.72;86.61;100473.03;5113722;28;20734;-18
2021/10/14 04:05:08;;;;;;;;;;;;;;;11.56;86.82;100464.50;5113673;28;19935;-20
2021/10/14 04:07:33;;;;;;;;;;;;;;;11.63;87.08;100475.97;5113722;28;20010;-18
2021/10/14 04:09:58;;;;;;;;;;;;;;;11.49;87.29;100474.41;5113388;28;19998;-19
2021/10/14 04:12:24;;;;;;;;;;;;;;;11.61;87.41;100480.69;5113461;28;19916;-18
2021/10/14 04:14:49;;;;;;;;;;;;;;;11.58;86.90;100478.44;5113524;28;19943;-21
2021/10/14 04:17:14;;;;;;;;;;;;;;;11.52;87.56;100470.47;5113336;28;19977;-19
2021/10/14 04:19:40;;;;;;;;;;;;;;;11.35;88.63;100464.84;5113493;28;19912;-19
2021/10/14 04:22:05;;;;;;;;;;;;;;;11.36;88.78;100458.44;5113276;28;20030;-19
2021/10/14 04:24:31;;;;;;;;;;;;;;;11.33;89.11;100469.56;5113480;28;20357;-19
2021/10/14 04:26:57;;;;;;;;;;;;;;;11.26;88.96;100470.44;5113105;28;20013;-19
2021/10/14 04:29:22;;;;;;;;;;;;;;;11.12;89.39;100468.03;5113196;28;20442;-18
2021/10/14 04:31:47;;;;;;;;;;;;;;;11.26;89.39;100475.78;5113228;28;19916;-19
2021/10/14 04:34:13;;;;;;;;;;;;;;;11.24;88.91;100480.50;5095068;28;20362;-19
2021/10/14 04:36:38;;;;;;;;;;;;;;;10.97;90.54;100477.13;5094663;28;19963;-19
2021/10/14 04:39:04;;;;;;;;;;;;;;;10.78;91.59;100480.69;5112919;28;19911;-19
2021/10/14 04:41:29;;;;;;;;;;;;;;;10.96;91.06;100477.34;5094708;28;20010;-19
2021/10/14 04:43:55;;;;;;;;;;;;;;;10.93;90.68;100472.41;5112954;28;19940;-19
2021/10/14 04:46:20;;;;;;;;;;;;;;;11.00;91.06;100468.69;5113191;28;19923;-19
2021/10/14 04:48:46;;;;;;;;;;;;;;;11.19;90.43;100468.81;5112807;28;19967;-18
2021/10/14 04:51:11;;;;;;;;;;;;;;;11.12;90.78;100468.03;5112456;28;20367;-19
2021/10/14 04:53:36;;;;;;;;;;;;;;;10.93;91.41;100475.09;5112970;28;20008;-18
2021/10/14 04:56:02;;;;;;;;;;;;;;;10.86;91.64;100465.25;5101905;28;20671;-19
2021/10/14 04:58:27;;;;;;;;;;;;;;;10.71;92.10;100472.72;5092279;28;19911;-18
2021/10/14 05:00:52;;;;;;;;;;;;;;;10.91;90.36;100471.81;5091957;28;20006;-19
2021/10/14 05:03:18;;;;;;;;;;;;;;;10.79;90.53;100475.16;5092569;28;19912;-19
2021/10/14 05:05:44;;;;;;;;;;;;;;;11.00;90.13;100481.22;5092233;28;20609;-19
2021/10/14 05:08:09;;;;;;;;;;;;;;;11.07;88.63;100468.66;5074290;28;20015;-19
2021/10/14 05:10:34;;;;;;;;;;;;;;;10.78;90.31;100489.50;5090626;28;20382;-18
2021/10/14 05:13:00;;;;;;;;;;;;;;;10.33;91.02;100491.22;5091829;28;19912;-18
2021/10/14 05:15:25;;;;;;;;;;;;;;;10.33;90.64;100491.22;5091939;28;19927;-19
2021/10/14 05:17:50;;;;;;;;;;;;;;;10.33;91.35;100496.56;5091849;28;19977;-19
2021/10/14 05:20:15;;;;;;;;;;;;;;;10.16;91.63;100496.13;5091728;28;19919;-19
2021/10/14 05:22:41;;;;;;;;;;;;;;;10.18;91.73;100499.41;5092147;28;19955;-19
2021/10/14 05:25:06;;;;;;;;;;;;;;;10.19;91.35;100509.84;5091380;28;20011;-18
2021/10/14 05:27:33;;;;;;;;;;;;;;;10.55;90.64;100510.50;5091812;28;20556;-19
2021/10/14 05:29:58;;;;;;;;;;;;;;;10.60;89.73;100516.00;5091515;28;19916;-19
2021/10/14 05:32:23;;;;;;;;;;;;;;;10.47;90.09;100518.72;5091434;28;19942;-19
2021/10/14 05:34:49;;;;;;;;;;;;;;;10.77;89.08;100513.75;5091317;28;19916;-19
2021/10/14 05:37:14;;;;;;;;;;;;;;;10.70;88.80;100520.91;5091754;28;19947;-19
2021/10/14 05:39:39;;;;;;;;;;;;;;;10.55;90.08;100521.16;5091596;28;19916;-19
2021/10/14 05:42:05;;;;;;;;;;;;;;;10.37;91.45;100519.94;5091862;28;19973;-19
2021/10/14 05:44:30;;;;;;;;;;;;;;;10.41;90.83;100515.81;5091390;28;20395;-19
2021/10/14 05:46:55;;;;;;;;;;;;;;;10.62;90.00;100517.47;5091463;28;20296;-19
2021/10/14 05:49:21;;;;;;;;;;;;;;;10.54;90.13;100511.50;5089914;28;19916;-19
2021/10/14 05:51:46;;;;;;;;;;;;;;;10.41;91.11;100507.81;5091166;28;19955;-18
2021/10/14 05:54:11;;;;;;;;;;;;;;;10.36;91.55;100514.81;5091196;28;19931;-19
2021/10/14 05:56:36;;;;;;;;;;;;;;;10.40;91.38;100522.19;5090790;28;19915;-19
2021/10/14 05:59:02;;;;;;;;;;;;;;;10.51;91.06;100531.41;5090928;28;20002;-18
2021/10/14 06:01:27;;;;;;;;;;;;;;;10.49;91.55;100530.00;5091273;28;19969;-19
2021/10/14 06:03:54;;;;;;;;;;;;;;;10.60;91.54;100529.34;5090834;28;19919;-19
2021/10/14 06:06:19;;;;;;;;;;;;;;;10.65;90.69;100526.88;5090855;28;19916;-19
2021/10/14 06:08:45;;;;;;;;;;;;;;;10.65;90.21;100525.03;5089666;28;19922;-19
2021/10/14 06:11:10;;;;;;;;;;;;;;;10.45;91.26;100543.72;5090832;28;19912;-19
2021/10/14 06:13:36;;;;;;;;;;;;;;;10.64;90.76;100541.25;5072732;28;20006;-18
2021/10/14 06:16:01;;;;;;;;;;;;;;;10.94;89.46;100548.78;5090640;28;20365;-19
2021/10/14 06:18:26;;;;;;;;;;;;;;;10.86;89.35;100555.16;5090754;28;19919;-19
2021/10/14 06:20:52;;;;;;;;;;;;;;;10.96;87.90;100554.72;5090396;28;19955;-19
2021/10/14 06:23:17;;;;;;;;;;;;;;;10.94;87.53;100552.25;5090554;28;19912;-19
2021/10/14 06:25:42;;;;;;;;;;;;;;;11.41;85.44;100557.44;5090637;28;20433;-18
2021/10/14 06:28:07;;;;;;;;;;;;;;;11.25;85.15;100558.75;5090524;28;19951;-18
2021/10/14 06:30:33;;;;;;;;;;;;;;;10.79;85.68;100562.38;5090430;28;19912;-19
2021/10/14 06:32:58;;;;;;;;;;;;;;;10.80;86.05;100566.66;5090478;28;19916;-19
2021/10/14 06:35:24;;;;;;;;;;;;;;;10.71;86.76;100579.41;5090467;28;20377;-19
2021/10/14 06:37:49;;;;;;;;;;;;;;;11.16;85.27;100576.03;5090244;28;19945;-19
2021/10/14 06:40:14;;;;;;;;;;;;;;;11.57;82.57;100578.34;5071864;28;20402;-20
2021/10/14 06:42:40;;;;;;;;;;;;;;;11.36;83.43;100571.44;5090543;28;20351;-19
2021/10/14 06:45:07;;;;;;;;;;;;;;;11.74;81.70;100573.31;5090030;28;19974;-19
2021/10/14 06:47:32;;;;;;;;;;;;;;;11.50;82.92;100561.50;5090247;28;19951;-19
2021/10/14 06:49:58;;;;;;;;;;;;;;;11.55;82.24;100564.38;5090276;28;19960;-18
2021/10/14 06:52:23;;;;;;;;;;;;;;;11.31;84.11;100573.09;5089941;28;20380;-19
2021/10/14 06:54:48;;;;;;;;;;;;;;;11.29;84.58;100567.16;5089820;28;19994;-19
2021/10/14 06:57:13;;;;;;;;;;;;;;;11.30;82.75;100576.78;5089756;28;19945;-19
2021/10/14 06:59:39;;;;;;;;;;;;;;;11.02;84.85;100577.91;5090152;28;20041;-19
2021/10/14 07:02:04;;;;;;;;;;;;;;;10.96;85.46;100568.88;5089719;28;20364;-21
2021/10/14 07:04:30;;;;;;;;;;;;;;;11.10;84.97;100572.34;5089709;28;19916;-19
2021/10/14 07:06:55;;;;;;;;;;;;;;;11.15;84.78;100569.84;5089765;28;20273;-19
2021/10/14 07:09:21;;;;;;;;;;;;;;;11.21;84.28;100569.00;5089897;28;19912;-18
2021/10/14 07:11:54;;;;;;;;;;;;;;;11.62;81.59;100577.69;5089719;28;20356;-19
2021/10/14 07:14:20;;;;;;;;;;;;;;;11.79;81.58;100569.97;5089757;28;19919;-19
2021/10/14 07:16:45;;;;;;;;;;;;;;;11.84;79.90;100568.31;5089643;28;19915;-19
2021/10/14 07:19:10;;;;;;;;;;;;;;;11.31;82.61;100579.25;5088829;28;19951;-19
2021/10/14 07:21:36;;;;;;;;;;;;;;;11.56;82.26;100575.88;5089682;28;19923;-19
2021/10/14 07:24:01;;;;;;;;;;;;;;;11.95;80.08;100588.25;5089463;28;19916;-19
2021/10/14 07:26:26;;;;;;;;;;;;;;;11.90;79.78;100587.25;5089884;28;19912;-20
2021/10/14 07:28:52;;;;;;;;;;;;;;;11.95;78.92;100588.25;5089637;28;19912;-19
2021/10/14 07:31:17;;;;;;;;;;;;;;;11.73;79.92;100581.53;5089400;28;19977;-19
2021/10/14 07:33:42;;;;;;;;;;;;;;;11.82;79.80;100581.06;5089287;28;20368;-19
2021/10/14 07:36:08;;;;;;;;;;;;;;;11.69;80.14;100585.66;5089646;28;19916;-19
2021/10/14 07:38:33;;;;;;;;;;;;;;;11.35;80.39;100590.34;5089217;28;19919;-21
2021/10/14 07:40:58;;;;;;;;;;;;;;;11.40;80.41;100588.69;5089151;28;19912;-19
2021/10/14 07:43:24;;;;;;;;;;;;;;;11.17;80.95;100589.16;5089591;28;19915;-19
2021/10/14 07:45:49;;;;;;;;;;;;;;;11.21;82.74;100587.69;5089419;28;19911;-19
2021/10/14 07:48:14;;;;;;;;;;;;;;;11.37;82.76;100582.94;5089500;28;19923;-19
2021/10/14 07:50:40;;;;;;;;;;;;;;;11.41;81.58;100579.63;5089201;28;20376;-19
2021/10/14 07:53:09;;;;;;;;;;;;;;;11.38;82.35;100585.41;5089080;28;19916;-19
2021/10/14 07:55:34;;;;;;;;;;;;;;;11.36;81.55;100582.13;5087753;28;19916;-19
2021/10/14 07:57:59;;;;;;;;;;;;;;;11.06;82.74;100592.47;5089337;28;19919;-19
2021/10/14 08:00:25;;;;;;;;;;;;;;;11.41;83.04;100590.31;5089802;28;20487;-20
2021/10/14 08:02:50;;;;;;;;;;;;;;;11.39;81.31;100591.56;5089194;28;19912;-20
2021/10/14 08:05:17;;;;;;;;;;;;;;;11.58;82.19;100589.84;5089235;28;19938;-19
2021/10/14 08:07:44;;;;;;;;;;;;;;;11.51;82.20;100594.41;5089190;28;19923;-19
2021/10/14 08:10:10;;;;;;;;;;;;;;;11.38;81.82;100604.09;5089220;28;19912;-19
2021/10/14 08:12:35;;;;;;;;;;;;;;;11.17;82.65;100607.84;5089240;28;19920;-20
2021/10/14 08:15:00;;;;;;;;;;;;;;;11.16;83.63;100614.22;5088730;28;20341;-19
2021/10/14 08:17:26;;;;;;;;;;;;;;;10.53;83.91;100608.56;5089192;28;19920;-19
2021/10/14 08:19:51;;;;;;;;;;;;;;;10.50;84.71;100608.94;5088913;28;19923;-19
2021/10/14 08:22:16;;;;;;;;;;;;;;;10.22;85.07;100607.28;5088729;28;19912;-22
2021/10/14 08:24:41;;;;;;;;;;;;;;;10.01;86.87;100603.75;5088796;28;19955;-19
2021/10/14 08:27:07;;;;;;;;;;;;;;;9.87;88.08;100610.06;5070721;28;19915;-20
2021/10/14 08:29:32;;;;;;;;;;;;;;;10.09;88.56;100597.38;5089329;28;20379;-21
2021/10/14 08:31:57;;;;;;;;;;;;;;;10.19;87.68;100608.47;5092405;28;20014;-21
2021/10/14 08:34:23;;;;;;;;;;;;;;;10.26;87.22;100597.84;5092568;28;20345;-21
2021/10/14 08:36:48;;;;;;;;;;;;;;;10.25;87.82;100597.00;5092332;28;19917;-21
2021/10/14 08:39:13;;;;;;;;;;;;;;;10.04;88.13;100595.34;5092445;28;19923;-21
2021/10/14 08:41:39;;;;;;;;;;;;;;;10.29;87.74;100594.75;5092751;28;19916;-21
2021/10/14 08:44:05;;;;;;;;;;;;;;;10.33;88.20;100604.00;5092539;28;20433;-19
2021/10/14 08:46:30;;;;;;;;;;;;;;;10.74;86.61;100605.66;5074421;28;19935;-19
2021/10/14 08:48:55;;;;;;;;;;;;;;;10.84;86.19;100610.56;5092657;28;19923;-19
2021/10/14 08:51:21;;;;;;;;;;;;;;;10.73;85.18;100616.56;5092454;28;19912;-19
2021/10/14 08:53:46;;;;;;;;;;;;;;;10.67;86.26;100618.19;5092301;28;19972;-20
2021/10/14 08:56:11;;;;;;;;;;;;;;;10.36;86.92;100614.28;5092275;28;20299;-19
2021/10/14 08:58:37;;;;;;;;;;;;;;;10.35;87.17;100623.28;5092343;28;19951;-19
2021/10/14 09:01:12;;;;;;;;;;;;;;;10.11;87.42;100610.50;5092192;28;19911;-19
2021/10/14 09:03:52;;;;;;;;;;;;;;;10.04;87.53;100613.19;5074095;28;19965;-19
2021/10/14 09:06:18;;;;;;;;;;;;;;;9.88;88.08;100617.03;5092173;28;19916;-19
2021/10/14 09:08:47;;;;;;;;;;;;;;;10.11;88.30;100614.00;5092220;28;19923;-19
2021/10/14 09:11:12;;;;;;;;;;;;;;;9.89;87.32;100602.69;5091709;28;19919;-19
2021/10/14 09:13:38;;;;;;;;;;;;;;;9.40;88.60;100598.44;5091928;28;19916;-19
2021/10/14 09:16:22;;;;;;;;;;;;;;;9.37;89.27;100598.81;5092009;28;19912;-19
2021/10/14 09:18:50;;;;;;;;;;;;;;;9.43;90.58;100593.50;5073843;28;19999;-20
2021/10/14 09:21:28;;;;;;;;;;;;;;;9.54;88.96;100600.13;5091909;28;19974;-19
2021/10/14 09:23:54;;;;;;;;;;;;;;;9.55;89.89;100590.28;5091683;28;19923;-19
2021/10/14 09:26:29;;;;;;;;;;;;;;;9.37;90.22;100588.16;5091322;28;19916;-19
2021/10/14 09:29:10;;;;;;;;;;;;;;;9.55;90.15;100585.78;5091264;28;19919;-19
2021/10/14 09:31:45;;;;;;;;;;;;;;;9.39;90.03;100576.28;5091445;28;20329;-19
2021/10/14 09:34:30;;;;;;;;;;;;;;;9.41;90.63;100584.09;5091788;28;19927;-19
2021/10/14 09:36:56;;;;;;;;;;;;;;;9.46;90.50;100584.31;5076903;28;19918;-19
2021/10/14 09:39:21;;;;;;;;;;;;;;;9.28;90.97;100579.53;5091337;28;19912;-19
2021/10/14 09:41:47;;;;;;;;;;;;;;;9.21;90.66;100574.19;5091085;28;19947;-20
2021/10/14 09:44:14;;;;;;;;;;;;;;;9.33;90.44;100577.09;5091129;28;19912;-19
2021/10/14 09:46:49;;;;;;;;;;;;;;;9.26;89.91;100584.22;5091294;28;20002;-19
2021/10/14 09:49:14;;;;;;;;;;;;;;;9.34;90.04;100569.94;5091365;28;19973;-20
2021/10/14 09:51:40;;;;;;;;;;;;;;;9.39;89.40;100570.16;5091356;28;19916;-19
2021/10/14 09:54:06;;;;;;;;;;;;;;;9.13;89.76;100576.16;5091334;28;19912;-19
2021/10/14 09:56:31;;;;;;;;;;;;;;;9.22;89.54;100564.34;5090923;28;19916;-19
2021/10/14 09:59:01;;;;;;;;;;;;;;;9.17;89.77;100567.59;5090824;28;19922;-19
2021/10/14 10:01:26;;;;;;;;;;;;;;;9.08;89.86;100579.41;5090948;28;19924;-19
2021/10/14 10:03:52;;;;;;;;;;;;;;;8.78;90.38;100569.00;5073113;28;19969;-19
2021/10/14 10:06:17;;;;;;;;;;;;;;;8.67;90.58;100569.56;5091015;28;20291;-19
2021/10/14 10:08:42;;;;;;;;;;;;;;;8.84;90.88;100576.19;5091095;28;19912;-20
2021/10/14 10:11:14;;;;;;;;;;;;;;;9.14;89.43;100562.66;5090725;28;19919;-19
2021/10/14 10:13:42;;;;;;;;;;;;;;;8.82;89.26;100564.94;5072596;28;19912;-19
2021/10/14 10:16:11;;;;;;;;;;;;;;;8.73;89.56;100575.94;5090712;28;20379;-19
2021/10/14 10:18:38;;;;;;;;;;;;;;;8.38;91.63;100574.00;5091056;28;20307;-19
2021/10/14 10:21:07;;;;;;;;;;;;;;;8.32;91.88;100568.66;5090497;28;20430;-19
2021/10/14 10:23:41;;;;;;;;;;;;;;;8.52;91.90;100571.47;5090719;28;19988;-20
2021/10/14 10:26:06;;;;;;;;;;;;;;;8.48;91.18;100567.56;5090950;28;19923;-19
2021/10/14 10:28:35;;;;;;;;;;;;;;;8.55;92.45;100573.75;5090816;28;19912;-19
2021/10/14 10:31:01;;;;;;;;;;;;;;;8.61;91.83;100573.78;5089787;28;19935;-19
2021/10/14 10:33:44;;;;;;;;;;;;;;;8.62;91.43;100559.50;5090452;28;19927;-19
2021/10/14 10:36:10;;;;;;;;;;;;;;;8.87;90.23;100561.72;5090311;28;19916;-20
2021/10/14 10:38:35;;;;;;;;;;;;;;;8.87;91.07;100550.22;5090550;28;19922;-20
2021/10/14 10:41:03;;;;;;;;;;;;;;;8.78;90.94;100555.69;5090220;28;19912;-19
2021/10/14 10:43:29;;;;;;;;;;;;;;;8.98;90.29;100563.00;5090453;28;20403;-19
2021/10/14 10:46:03;;;;;;;;;;;;;;;8.90;90.25;100555.16;5090595;28;19912;-19
2021/10/14 10:48:38;;;;;;;;;;;;;;;9.03;90.11;100560.56;5090213;28;20007;-19
2021/10/14 10:51:03;;;;;;;;;;;;;;;9.10;89.64;100556.09;5089742;28;19912;-20
2021/10/14 10:53:39;;;;;;;;;;;;;;;9.02;89.52;100554.41;5089254;28;19966;-19
2021/10/14 10:56:04;;;;;;;;;;;;;;;8.70;90.90;100547.06;5090423;28;19916;-19
2021/10/14 10:58:46;;;;;;;;;;;;;;;8.68;91.23;100560.53;5089990;28;20381;-19
2021/10/14 11:01:12;;;;;;;;;;;;;;;8.69;91.74;100564.03;5089790;28;20485;-19
2021/10/14 11:03:37;;;;;;;;;;;;;;;8.88;90.99;100563.34;5089982;28;19920;-20
2021/10/14 11:06:09;;;;;;;;;;;;;;;8.64;91.51;100552.16;5089771;28;19923;-19
2021/10/14 11:08:34;;;;;;;;;;;;;;;8.58;91.82;100552.09;5089889;28;19919;-19
2021/10/14 11:11:06;;;;;;;;;;;;;;;8.70;91.54;100547.88;5089348;28;19973;-19
2021/10/14 11:13:32;;;;;;;;;;;;;;;8.65;91.08;100543.16;5089915;28;19921;-19
2021/10/14 11:15:58;;;;;;;;;;;;;;;8.56;91.00;100548.81;5071616;28;19951;-19
2021/10/14 11:18:24;;;;;;;;;;;;;;;8.44;92.71;100553.84;5089764;28;19951;-19
2021/10/14 11:20:50;;;;;;;;;;;;;;;8.52;91.95;100548.38;5089200;28;19923;-19
2021/10/14 11:23:15;;;;;;;;;;;;;;;8.81;91.62;100555.31;5089807;28;19912;-20
2021/10/14 11:25:41;;;;;;;;;;;;;;;8.78;90.92;100555.69;5089522;28;19915;-19
2021/10/14 11:28:06;;;;;;;;;;;;;;;8.86;90.05;100549.41;5071291;28;19969;-19
2021/10/14 11:30:36;;;;;;;;;;;;;;;8.67;90.52;100537.66;5089524;28;20003;-19
2021/10/14 11:33:10;;;;;;;;;;;;;;;8.49;91.68;100532.00;5089079;28;19916;-19
2021/10/14 11:35:35;;;;;;;;;;;;;;;8.48;91.17;100512.56;5089659;28;19921;-21
2021/10/14 11:38:07;;;;;;;;;;;;;;;8.77;90.54;100527.47;5089240;28;19918;-19
2021/10/14 11:40:33;;;;;;;;;;;;;;;8.60;90.33;100532.28;5089545;28;19916;-21
2021/10/14 11:42:58;;;;;;;;;;;;;;;8.48;91.07;100543.63;5089621;28;19947;-20
2021/10/14 11:45:24;;;;;;;;;;;;;;;8.29;92.22;100545.91;5071500;28;20413;-19
2021/10/14 11:47:49;;;;;;;;;;;;;;;8.09;92.83;100528.97;5089372;28;19918;-19
2021/10/14 11:50:14;;;;;;;;;;;;;;;8.08;92.81;100520.19;5089358;28;19920;-19
2021/10/14 11:52:40;;;;;;;;;;;;;;;7.94;91.88;100519.25;5089409;28;19918;-19
2021/10/14 11:55:06;;;;;;;;;;;;;;;8.07;93.36;100523.03;5088901;28;19916;-19
2021/10/14 11:57:31;;;;;;;;;;;;;;;8.17;91.62;100520.88;5089647;28;20011;-20
2021/10/14 11:59:56;;;;;;;;;;;;;;;8.05;91.78;100525.91;5089240;28;20014;-19
2021/10/14 12:02:23;;;;;;;;;;;;;;;7.85;92.61;100520.41;5089114;28;19920;-19
2021/10/14 12:04:53;;;;;;;;;;;;;;;8.15;92.69;100525.56;5091714;28;19912;-21
2021/10/14 12:07:22;;;;;;;;;;;;;;;8.29;91.53;100516.69;5093404;28;19916;-19
2021/10/14 12:09:47;;;;;;;;;;;;;;;8.36;90.77;100525.53;5093299;28;19920;-19
2021/10/14 12:12:19;;;;;;;;;;;;;;;8.41;89.94;100524.97;5092932;28;19915;-19
2021/10/14 12:14:45;;;;;;;;;;;;;;;8.09;90.99;100518.34;5092850;28;19962;-19
2021/10/14 12:17:11;;;;;;;;;;;;;;;8.28;90.73;100520.38;5092620;28;19920;-20
2021/10/14 12:19:46;;;;;;;;;;;;;;;8.27;90.36;100517.91;5092626;28;19959;-19
2021/10/14 12:22:15;;;;;;;;;;;;;;;8.20;90.95;100526.63;5092925;28;20368;-21
2021/10/14 12:24:56;;;;;;;;;;;;;;;7.97;91.61;100529.50;5092972;28;19911;-19
2021/10/14 12:27:22;;;;;;;;;;;;;;;7.92;91.52;100510.66;5093077;28;20276;-19
2021/10/14 12:29:47;;;;;;;;;;;;;;;7.98;91.88;100517.03;5092917;28;20436;-19
2021/10/14 12:32:13;;;;;;;;;;;;;;;8.01;91.75;100525.47;5092746;28;19916;-19
2021/10/14 12:34:40;;;;;;;;;;;;;;;7.87;91.98;100523.69;5092610;28;20303;-19